Time;durP1;ratioP1;P1;durP2;ratioP2;P2;SDS_P1;SDS_P2;PMS_P1;PMS_P2;Temp;Humidity;BMP_temperature;BMP_pressure;BME280_temperature;BME280_humidity;BME280_pressure;Samples;Min_cycle;Max_cycle;Signal;HPM_P1;HPM_P2
2023/03/10 00:02:22;;;;;;;0.20;0.20;;;;;;;13.47;100.00;99526.97;5038219;28;20021;-66
2023/03/10 00:04:52;;;;;;;0.20;0.20;;;;;;;13.42;100.00;99525.34;5038944;28;20037;-66
2023/03/10 00:07:18;;;;;;;0.20;0.20;;;;;;;13.35;100.00;99522.56;5038587;28;20036;-66
2023/03/10 00:09:44;;;;;;;0.20;0.20;;;;;;;13.34;100.00;99526.56;5038791;28;20363;-67
2023/03/10 00:12:10;;;;;;;0.20;0.20;;;;;;;13.30;100.00;99509.78;5038422;28;20437;-66
2023/03/10 00:14:36;;;;;;;0.20;0.20;;;;;;;13.42;100.00;99510.59;5038068;28;20120;-66
2023/03/10 00:17:02;;;;;;;0.20;0.20;;;;;;;13.39;100.00;99509.41;5038106;28;20127;-67
2023/03/10 00:19:28;;;;;;;0.20;0.20;;;;;;;13.36;100.00;99501.81;5038301;28;20025;-66
2023/03/10 00:21:54;;;;;;;0.20;0.20;;;;;;;13.36;100.00;99511.00;5038320;28;20450;-66
2023/03/10 00:24:20;;;;;;;0.20;0.20;;;;;;;13.39;100.00;99497.44;5038203;28;20479;-66
2023/03/10 00:26:45;;;;;;;0.20;0.20;;;;;;;13.41;100.00;99495.03;5038153;28;20036;-66
2023/03/10 00:29:11;;;;;;;0.20;0.20;;;;;;;13.39;100.00;99497.44;5038109;28;20460;-67
2023/03/10 00:31:37;;;;;;;0.20;0.20;;;;;;;13.55;100.00;99492.25;5038063;28;20028;-66
2023/03/10 00:34:03;;;;;;;0.20;0.20;;;;;;;13.40;100.00;99493.44;5037886;28;20029;-67
2023/03/10 00:36:30;;;;;;;0.20;0.20;;;;;;;13.39;100.00;99503.81;5037850;28;20036;-66
2023/03/10 00:38:59;;;;;;;0.20;0.20;;;;;;;13.31;100.00;99486.25;5037546;28;20025;-67
2023/03/10 00:41:31;;;;;;;0.20;0.20;;;;;;;13.50;100.00;99482.25;5037643;28;20032;-66
2023/03/10 00:43:57;;;;;;;0.20;0.20;;;;;;;13.53;100.00;99473.09;5055742;28;20077;-66
2023/03/10 00:46:24;;;;;;;0.20;0.20;;;;;;;13.58;100.00;99480.25;5037059;28;20033;-66
2023/03/10 00:48:50;;;;;;;0.20;0.20;;;;;;;13.41;100.00;99472.69;5037385;28;20036;-66
2023/03/10 00:51:16;;;;;;;0.20;0.20;;;;;;;13.33;100.00;99475.47;5037432;28;20186;-66
2023/03/10 00:53:42;;;;;;;0.20;0.20;;;;;;;13.27;100.00;99468.69;5037882;28;20482;-66
2023/03/10 00:56:12;;;;;;;0.20;0.20;;;;;;;13.22;100.00;99454.31;5037303;28;20038;-66
2023/03/10 00:58:41;;;;;;;0.30;0.30;;;;;;;13.26;100.00;99463.50;5037012;28;20123;-66
2023/03/10 01:01:21;;;;;;;0.20;0.20;;;;;;;13.35;100.00;99452.72;5054762;28;20021;-66
2023/03/10 01:03:48;;;;;;;0.20;0.20;;;;;;;13.39;100.00;99445.16;5055094;28;20115;-66
2023/03/10 01:06:14;;;;;;;0.20;0.20;;;;;;;13.32;100.00;99443.16;5037111;28;20029;-66
2023/03/10 01:08:39;;;;;;;0.20;0.20;;;;;;;13.49;100.00;99435.97;5037231;28;20078;-66
2023/03/10 01:11:05;;;;;;;0.20;0.20;;;;;;;13.35;100.00;99435.97;5037493;28;20029;-66
2023/03/10 01:13:31;;;;;;;0.20;0.20;;;;;;;13.26;100.00;99422.41;5037699;28;20033;-66
2023/03/10 01:15:56;;;;;;;0.20;0.20;;;;;;;13.20;100.00;99414.78;5037535;28;20126;-66
2023/03/10 01:18:22;;;;;;;0.20;0.20;;;;;;;13.14;100.00;99419.97;5037551;28;20029;-68
2023/03/10 01:20:47;;;;;;;0.20;0.20;;;;;;;13.05;100.00;99406.41;5036706;28;20032;-67
2023/03/10 01:23:24;;;;;;;0.20;0.20;;;;;;;13.17;100.00;99410.00;5036805;28;20076;-67
2023/03/10 01:25:50;;;;;;;0.20;0.20;;;;;;;13.08;100.00;99399.22;5036707;28;20025;-67
2023/03/10 01:28:16;;;;;;;0.20;0.20;;;;;;;13.07;100.00;99398.41;5036696;28;20060;-67
2023/03/10 01:30:42;;;;;;;0.20;0.20;;;;;;;13.19;100.00;99388.84;5036920;28;20036;-67
2023/03/10 01:33:08;;;;;;;0.20;0.20;;;;;;;13.08;100.00;99386.06;5036581;28;20099;-68
2023/03/10 01:35:34;;;;;;;0.20;0.20;;;;;;;13.44;100.00;99382.47;5036758;28;20032;-66
2023/03/10 01:38:00;;;;;;;0.20;0.20;;;;;;;13.32;100.00;99389.28;5037058;28;20110;-65
2023/03/10 01:40:26;;;;;;;0.20;0.20;;;;;;;13.22;100.00;99387.28;5036366;28;20514;-66
2023/03/10 01:43:11;;;;;;;0.20;0.20;;;;;;;13.16;100.00;99380.47;5036704;28;20036;-67
2023/03/10 01:45:37;;;;;;;0.20;0.20;;;;;;;13.17;100.00;99363.31;5036142;28;20029;-68
2023/03/10 01:48:02;;;;;;;0.20;0.20;;;;;;;13.15;100.00;99364.91;5036343;28;20036;-68
2023/03/10 01:50:28;;;;;;;0.20;0.20;;;;;;;13.07;100.00;99347.34;5036967;28;20104;-69
2023/03/10 01:52:57;;;;;;;0.20;0.20;;;;;;;13.07;100.00;99359.31;5036921;28;20036;-70
2023/03/10 01:55:40;;;;;;;0.25;0.25;;;;;;;13.03;100.00;99361.31;5037544;28;20060;-68
2023/03/10 01:58:06;;;;;;;0.20;0.20;;;;;;;13.00;100.00;99367.72;5036847;28;20068;-68
2023/03/10 02:00:32;;;;;;;0.20;0.20;;;;;;;12.99;100.00;99357.72;5037094;28;20031;-69
2023/03/10 02:03:18;;;;;;;0.20;0.20;;;;;;;13.04;100.00;99359.31;5036843;28;20025;-66
2023/03/10 02:05:52;;;;;;;0.20;0.20;;;;;;;13.01;100.00;99365.72;5036616;28;20029;-66
2023/03/10 02:08:19;;;;;;;0.20;0.20;;;;;;;13.04;100.00;99348.16;5036006;28;20036;-67
2023/03/10 02:10:46;;;;;;;0.20;0.20;;;;;;;13.00;100.00;99347.38;5035962;28;20033;-67
2023/03/10 02:13:12;;;;;;;0.20;0.20;;;;;;;13.06;100.00;99354.94;5035914;28;20027;-67
2023/03/10 02:15:38;;;;;;;0.20;0.20;;;;;;;12.99;100.00;99340.97;5036350;28;20037;-67
2023/03/10 02:18:07;;;;;;;0.20;0.20;;;;;;;13.02;100.00;99342.97;5036531;28;20057;-66
2023/03/10 02:20:51;;;;;;;0.20;0.20;;;;;;;12.98;100.00;99349.75;5035794;28;20112;-66
2023/03/10 02:23:51;;;;;;;0.20;0.20;;;;;;;12.95;100.00;99340.19;5035873;28;20032;-68
2023/03/10 02:26:23;;;;;;;0.20;0.20;;;;;;;12.96;100.00;99336.19;5010084;28;20044;-66
2023/03/10 02:28:50;;;;;;;0.20;0.20;;;;;;;12.98;100.00;99333.78;5035758;28;20025;-67
2023/03/10 02:31:17;;;;;;;0.22;0.22;;;;;;;13.00;100.00;99336.19;5036290;28;20426;-67
2023/03/10 02:33:45;;;;;;;0.20;0.20;;;;;;;12.97;100.00;99326.63;5035988;28;20488;-67
2023/03/10 02:36:15;;;;;;;0.20;0.20;;;;;;;12.95;100.00;99323.44;5036291;28;20029;-67
2023/03/10 02:38:41;;;;;;;0.20;0.20;;;;;;;12.99;100.00;99326.22;5035690;28;20029;-67
2023/03/10 02:41:19;;;;;;;0.20;0.20;;;;;;;12.94;100.00;99324.63;5036218;28;20063;-67
2023/03/10 02:43:46;;;;;;;0.30;0.30;;;;;;;12.95;100.00;99323.44;5036481;28;20056;-67
2023/03/10 02:46:12;;;;;;;0.20;0.20;;;;;;;13.05;100.00;99314.25;5036119;28;20025;-66
2023/03/10 02:48:38;;;;;;;0.20;0.20;;;;;;;13.28;100.00;99307.47;5036449;28;20029;-66
2023/03/10 02:51:09;;;;;;;0.20;0.20;;;;;;;13.41;100.00;99303.03;5035908;28;20068;-66
2023/03/10 02:53:35;;;;;;;0.20;0.20;;;;;;;13.28;100.00;99293.50;5036100;28;20029;-67
2023/03/10 02:56:01;;;;;;;0.20;0.20;;;;;;;13.60;100.00;99302.56;5035581;28;20056;-66
2023/03/10 02:58:28;;;;;;;0.20;0.20;;;;;;;13.34;100.00;99300.25;5035150;28;20057;-67
2023/03/10 03:00:54;;;;;;;0.20;0.20;;;;;;;13.23;100.00;99293.91;5035708;28;20082;-67
2023/03/10 03:03:21;;;;;;;0.20;0.20;;;;;;;13.21;100.00;99293.47;5036145;28;20037;-66
2023/03/10 03:05:48;;;;;;;0.20;0.20;;;;;;;13.06;100.00;99287.13;5035774;28;20071;-67
2023/03/10 03:08:14;;;;;;;0.20;0.20;;;;;;;13.18;100.00;99289.50;5053287;28;20056;-66
2023/03/10 03:10:40;;;;;;;0.20;0.20;;;;;;;13.06;100.00;99278.75;5039215;28;20112;-67
2023/03/10 03:13:06;;;;;;;0.20;0.20;;;;;;;13.05;100.00;99277.94;5039305;28;20039;-66
2023/03/10 03:15:32;;;;;;;0.30;0.30;;;;;;;13.00;100.00;99278.38;5039512;28;20025;-66
2023/03/10 03:17:58;;;;;;;0.20;0.20;;;;;;;12.96;100.00;99283.16;5039689;28;20032;-67
2023/03/10 03:20:25;;;;;;;0.20;0.20;;;;;;;12.96;100.00;99274.78;5039345;28;20360;-66
2023/03/10 03:22:51;;;;;;;0.20;0.20;;;;;;;12.99;100.00;99279.53;5039592;28;20087;-67
2023/03/10 03:25:19;;;;;;;0.20;0.20;;;;;;;12.93;100.00;99266.38;5039234;28;20037;-67
2023/03/10 03:27:45;;;;;;;0.20;0.20;;;;;;;12.93;100.00;99275.56;5039168;28;20033;-67
2023/03/10 03:30:15;;;;;;;0.20;0.20;;;;;;;12.88;100.00;99267.59;5057065;28;20021;-66
2023/03/10 03:32:41;;;;;;;0.20;0.20;;;;;;;12.81;100.00;99253.66;5038887;28;20456;-66
2023/03/10 03:35:14;;;;;;;0.20;0.20;;;;;;;12.80;100.00;99260.44;5039109;28;20028;-65
2023/03/10 03:37:40;;;;;;;0.20;0.20;;;;;;;12.76;100.00;99262.41;5038837;28;20033;-67
2023/03/10 03:40:11;;;;;;;0.20;0.20;;;;;;;12.72;100.00;99259.63;5056232;28;20021;-66
2023/03/10 03:42:41;;;;;;;0.20;0.20;;;;;;;12.67;100.00;99253.66;5038700;28;20029;-65
2023/03/10 03:45:08;;;;;;;0.20;0.20;;;;;;;12.68;100.00;99258.06;5038868;28;20033;-67
2023/03/10 03:47:34;;;;;;;0.20;0.20;;;;;;;12.69;100.00;99259.66;5056458;28;20108;-66
2023/03/10 03:50:00;;;;;;;0.20;0.20;;;;;;;12.73;100.00;99254.84;5038926;28;20064;-66
2023/03/10 03:52:25;;;;;;;0.20;0.20;;;;;;;12.78;100.00;99265.59;5038816;28;20036;-65
2023/03/10 03:54:51;;;;;;;0.20;0.20;;;;;;;12.88;100.00;99266.78;5038768;28;20415;-66
2023/03/10 03:57:19;;;;;;;0.20;0.20;;;;;;;12.97;100.00;99270.78;5038472;28;20526;-66
2023/03/10 03:59:45;;;;;;;0.20;0.20;;;;;;;13.02;100.00;99267.56;5038385;28;20094;-66
2023/03/10 04:02:11;;;;;;;0.20;0.20;;;;;;;12.97;100.00;99259.59;5038186;28;20033;-67
2023/03/10 04:04:36;;;;;;;0.20;0.20;;;;;;;13.08;100.00;99259.59;5038484;28;20044;-67
2023/03/10 04:07:02;;;;;;;0.20;0.20;;;;;;;13.13;100.00;99264.75;5038275;28;20029;-67
2023/03/10 04:09:30;;;;;;;0.20;0.20;;;;;;;13.11;100.00;99247.63;5038233;28;20035;-66
2023/03/10 04:11:55;;;;;;;0.20;0.20;;;;;;;13.22;100.00;99250.41;5038263;28;20115;-66
2023/03/10 04:14:21;;;;;;;0.20;0.20;;;;;;;13.27;100.00;99255.59;5038915;28;20048;-66
2023/03/10 04:16:46;;;;;;;0.20;0.20;;;;;;;13.22;100.00;99264.38;5038913;28;20467;-67
2023/03/10 04:19:12;;;;;;;0.20;0.20;;;;;;;13.13;100.00;99250.00;5038283;28;20036;-66
2023/03/10 04:21:38;;;;;;;0.20;0.20;;;;;;;13.07;100.00;99242.03;5037351;28;20025;-67
2023/03/10 04:24:04;;;;;;;0.20;0.20;;;;;;;13.02;100.00;99245.22;5037872;28;20040;-67
2023/03/10 04:26:30;;;;;;;0.20;0.20;;;;;;;13.00;100.00;99242.06;5037789;28;20036;-67
2023/03/10 04:28:56;;;;;;;0.20;0.20;;;;;;;13.03;100.00;99246.03;5038154;28;20033;-67
2023/03/10 04:31:25;;;;;;;0.20;0.20;;;;;;;12.83;100.00;99223.31;5038012;28;20041;-66
2023/03/10 04:33:51;;;;;;;0.20;0.20;;;;;;;12.88;100.00;99256.41;5038401;28;20033;-66
2023/03/10 04:36:18;;;;;;;0.20;0.20;;;;;;;12.83;100.00;99248.44;5037733;28;20070;-66
2023/03/10 04:38:43;;;;;;;0.20;0.20;;;;;;;12.77;100.00;99241.69;5037987;28;20032;-66
2023/03/10 04:41:09;;;;;;;0.20;0.20;;;;;;;12.77;100.00;99247.25;5038134;28;20033;-66
2023/03/10 04:43:35;;;;;;;0.20;0.20;;;;;;;12.71;100.00;99251.66;5037607;28;20052;-66
2023/03/10 04:46:00;;;;;;;0.20;0.20;;;;;;;12.73;100.00;99244.50;5037493;28;20028;-66
2023/03/10 04:48:26;;;;;;;0.20;0.20;;;;;;;12.73;100.00;99244.50;5037845;28;20029;-66
2023/03/10 04:51:00;;;;;;;0.20;0.20;;;;;;;12.75;100.00;99246.88;5037679;28;20491;-66
2023/03/10 04:53:26;;;;;;;0.20;0.20;;;;;;;12.74;100.00;99250.88;5037750;28;20041;-67
2023/03/10 04:55:52;;;;;;;0.20;0.20;;;;;;;12.80;100.00;99246.47;5037352;28;20028;-66
2023/03/10 04:58:19;;;;;;;0.20;0.20;;;;;;;12.80;100.00;99247.28;5037153;28;20049;-66
2023/03/10 05:00:45;;;;;;;0.20;0.20;;;;;;;12.87;100.00;99243.66;5037465;28;20375;-67
2023/03/10 05:03:10;;;;;;;0.20;0.20;;;;;;;12.83;100.00;99240.88;5037476;28;20029;-66
2023/03/10 05:05:36;;;;;;;0.20;0.20;;;;;;;12.83;100.00;99249.25;5037410;28;20032;-67
2023/03/10 05:08:03;;;;;;;0.20;0.20;;;;;;;13.03;100.00;99246.03;5037082;28;20036;-65
2023/03/10 05:10:28;;;;;;;0.20;0.20;;;;;;;12.95;100.00;99250.84;5036960;28;20537;-66
2023/03/10 05:12:54;;;;;;;0.20;0.20;;;;;;;12.91;100.00;99243.66;5037606;28;20028;-66
2023/03/10 05:15:20;;;;;;;0.20;0.20;;;;;;;12.88;100.00;99239.66;5037534;28;20140;-66
2023/03/10 05:17:45;;;;;;;0.20;0.20;;;;;;;12.89;100.00;99240.47;5037249;28;20456;-66
2023/03/10 05:20:13;;;;;;;0.20;0.20;;;;;;;12.84;100.00;99238.91;5037038;28;20107;-66
2023/03/10 05:22:39;;;;;;;0.20;0.20;;;;;;;12.83;100.00;99237.28;5037092;28;20060;-67
2023/03/10 05:25:06;;;;;;;0.30;0.30;;;;;;;12.95;100.00;99234.09;5036726;28;20029;-67
2023/03/10 05:27:32;;;;;;;0.20;0.20;;;;;;;13.06;100.00;99234.84;5036695;28;20048;-66
2023/03/10 05:29:58;;;;;;;0.20;0.20;;;;;;;13.25;100.00;99230.03;5037198;28;20016;-65
2023/03/10 05:32:24;;;;;;;0.20;0.20;;;;;;;13.35;100.00;99234.81;5036364;28;20029;-66
2023/03/10 05:34:49;;;;;;;0.20;0.20;;;;;;;13.40;100.00;99241.97;5036226;28;20068;-66
2023/03/10 05:37:15;;;;;;;0.20;0.20;;;;;;;13.41;100.00;99238.75;5036589;28;20037;-66
2023/03/10 05:39:42;;;;;;;0.20;0.20;;;;;;;13.47;100.00;99242.72;5036469;28;20021;-66
2023/03/10 05:42:09;;;;;;;0.20;0.20;;;;;;;13.54;100.00;99242.72;5036594;28;20486;-66
2023/03/10 05:44:35;;;;;;;0.20;0.20;;;;;;;13.61;100.00;99248.28;5054423;28;20032;-66
2023/03/10 05:47:01;;;;;;;0.20;0.20;;;;;;;13.51;100.00;99249.09;5036994;28;20455;-66
2023/03/10 05:49:26;;;;;;;0.20;0.20;;;;;;;13.60;100.00;99257.84;5035979;28;20112;-66
2023/03/10 05:51:51;;;;;;;0.20;0.20;;;;;;;13.55;100.00;99261.06;5037024;28;20040;-66
2023/03/10 05:54:17;;;;;;;0.20;0.20;;;;;;;13.55;100.00;99266.66;5036865;28;20356;-66
2023/03/10 05:56:43;;;;;;;0.30;0.30;;;;;;;13.52;100.00;99256.28;5036793;28;20127;-66
2023/03/10 05:59:08;;;;;;;0.20;0.20;;;;;;;13.67;100.00;99264.63;5035717;28;20403;-67
2023/03/10 06:01:34;;;;;;;0.20;0.20;;;;;;;13.53;100.00;99260.69;5036432;28;20536;-66
2023/03/10 06:03:59;;;;;;;0.20;0.20;;;;;;;13.58;100.00;99262.25;5036073;28;20540;-66
2023/03/10 06:06:25;;;;;;;0.20;0.20;;;;;;;13.75;100.00;99269.78;5036138;28;20029;-66
2023/03/10 06:08:50;;;;;;;0.20;0.20;;;;;;;14.09;100.00;99261.59;5036080;28;20036;-66
2023/03/10 06:11:17;;;;;;;0.20;0.20;;;;;;;14.32;100.00;99280.63;5036064;28;20151;-66
2023/03/10 06:13:42;;;;;;;0.20;0.20;;;;;;;14.26;100.00;99270.28;5036523;28;20463;-66
2023/03/10 06:16:09;;;;;;;0.20;0.20;;;;;;;14.52;100.00;99271.72;5036301;28;20033;-66
2023/03/10 06:18:35;;;;;;;0.20;0.20;;;;;;;14.62;100.00;99277.25;5035910;28;20171;-66
2023/03/10 06:21:09;;;;;;;0.20;0.20;;;;;;;15.18;100.00;99275.16;5035754;28;20120;-67
2023/03/10 06:23:37;;;;;;;0.20;0.20;;;;;;;15.74;100.00;99265.72;5036367;28;20052;-66
2023/03/10 06:26:06;;;;;;;0.20;0.20;;;;;;;15.69;100.00;99267.00;5036329;28;20021;-67
2023/03/10 06:28:34;;;;;;;0.20;0.20;;;;;;;15.53;100.00;99264.75;5054327;28;20118;-67
2023/03/10 06:31:01;;;;;;;0.20;0.20;;;;;;;15.81;100.00;99271.25;5036018;28;20378;-66
2023/03/10 06:33:31;;;;;;;0.20;0.20;;;;;;;15.74;100.00;99268.53;5036341;28;20052;-68
2023/03/10 06:36:00;;;;;;;0.30;0.30;;;;;;;16.37;100.00;99266.06;5035934;28;20036;-68
2023/03/10 06:38:26;;;;;;;0.20;0.20;;;;;;;16.54;100.00;99267.78;5054088;28;20472;-67
2023/03/10 06:40:51;;;;;;;0.20;0.20;;;;;;;16.26;100.00;99276.66;5035776;28;20021;-67
2023/03/10 06:43:17;;;;;;;0.20;0.20;;;;;;;16.34;100.00;99286.53;5035603;28;20478;-68
2023/03/10 06:45:44;;;;;;;0.20;0.20;;;;;;;16.08;100.00;99274.09;5039485;28;20056;-68
2023/03/10 06:48:10;;;;;;;0.20;0.20;;;;;;;15.73;100.00;99275.38;5039711;28;20033;-68
2023/03/10 06:50:40;;;;;;;0.20;0.20;;;;;;;15.64;100.00;99276.66;5039965;28;20111;-68
2023/03/10 06:53:06;;;;;;;0.20;0.20;;;;;;;15.61;100.00;99280.28;5058093;28;20056;-68
2023/03/10 06:55:31;;;;;;;0.20;0.20;;;;;;;15.46;100.00;99278.84;5039582;28;20494;-67
2023/03/10 06:57:57;;;;;;;0.22;0.22;;;;;;;15.41;100.00;99277.31;5038929;28;20047;-67
2023/03/10 07:00:22;;;;;;;0.20;0.20;;;;;;;15.49;100.00;99271.59;5039382;28;20044;-67
2023/03/10 07:02:48;;;;;;;0.20;0.20;;;;;;;15.46;100.00;99274.03;5039998;28;20029;-67
2023/03/10 07:05:13;;;;;;;0.20;0.20;;;;;;;15.33;100.00;99280.59;5039424;28;20411;-67
2023/03/10 07:07:39;;;;;;;0.20;0.20;;;;;;;15.50;100.00;99282.41;5039853;28;20041;-67
2023/03/10 07:10:05;;;;;;;0.20;0.20;;;;;;;15.93;100.00;99285.53;5039677;28;20443;-66
2023/03/10 07:12:31;;;;;;;0.20;0.20;;;;;;;16.30;100.00;99292.22;5039557;28;20032;-67
2023/03/10 07:14:57;;;;;;;0.20;0.20;;;;;;;16.59;99.73;99303.81;5056919;28;20031;-66
2023/03/10 07:17:23;;;;;;;0.20;0.20;;;;;;;16.54;99.16;99314.72;5040122;28;20037;-67
2023/03/10 07:19:48;;;;;;;0.20;0.20;;;;;;;16.37;99.46;99319.41;5039901;28;20459;-66
2023/03/10 07:22:14;;;;;;;0.20;0.20;;;;;;;16.32;100.00;99315.06;5039784;28;20028;-66
2023/03/10 07:24:39;;;;;;;0.20;0.20;;;;;;;16.27;97.71;99314.72;5039350;28;20029;-67
2023/03/10 07:27:06;;;;;;;0.20;0.20;;;;;;;16.28;99.19;99307.88;5039101;28;20392;-67
2023/03/10 07:29:31;;;;;;;0.20;0.20;;;;;;;16.19;99.38;99306.41;5038922;28;20025;-67
2023/03/10 07:31:56;;;;;;;0.20;0.20;;;;;;;16.12;99.69;99305.69;5057060;28;20029;-67
2023/03/10 07:34:22;;;;;;;0.20;0.20;;;;;;;15.92;100.00;99305.56;5038886;28;20416;-67
2023/03/10 07:36:48;;;;;;;0.20;0.20;;;;;;;15.94;100.00;99294.72;5038760;28;20033;-68
2023/03/10 07:39:13;;;;;;;0.20;0.20;;;;;;;15.91;100.00;99292.75;5038732;28;20036;-67
2023/03/10 07:41:39;;;;;;;0.20;0.20;;;;;;;15.91;100.00;99298.38;5039427;28;20075;-68
2023/03/10 07:44:04;;;;;;;0.20;0.20;;;;;;;16.52;97.20;99292.69;5039055;28;20456;-68
2023/03/10 07:46:30;;;;;;;0.20;0.20;;;;;;;17.64;93.07;99287.53;5039159;28;20025;-68
2023/03/10 07:48:58;;;;;;;0.20;0.20;;;;;;;17.62;90.16;99289.19;5038783;28;20021;-68
2023/03/10 07:51:24;;;;;;;0.20;0.20;;;;;;;17.19;91.93;99279.53;5039187;28;20028;-68
2023/03/10 07:53:50;;;;;;;0.20;0.20;;;;;;;17.55;88.56;99281.69;5056735;28;20055;-68
2023/03/10 07:56:16;;;;;;;0.20;0.20;;;;;;;18.04;85.64;99281.91;5038837;28;20025;-67
2023/03/10 07:58:41;;;;;;;0.20;0.20;;;;;;;17.87;84.38;99274.63;5037912;28;20063;-68
2023/03/10 08:01:12;;;;;;;0.20;0.20;;;;;;;18.07;84.16;99278.22;5038944;28;20120;-68
2023/03/10 08:03:38;;;;;;;0.20;0.20;;;;;;;17.41;87.26;99281.94;5038624;28;20033;-67
2023/03/10 08:06:04;;;;;;;0.20;0.20;;;;;;;17.84;87.38;99269.88;5038281;28;20090;-68
2023/03/10 08:08:30;;;;;;;0.20;0.20;;;;;;;17.84;84.13;99272.69;5038457;28;20068;-68
2023/03/10 08:11:08;;;;;;;0.20;0.20;;;;;;;17.89;83.75;99289.06;5056963;28;20053;-68
2023/03/10 08:13:34;;;;;;;0.20;0.20;;;;;;;17.52;84.75;99274.09;5055775;28;20067;-67
2023/03/10 08:16:01;;;;;;;0.20;0.20;;;;;;;17.39;86.60;99282.38;5038626;28;20060;-67
2023/03/10 08:18:28;;;;;;;0.20;0.20;;;;;;;16.90;89.44;99289.72;5038989;28;20029;-67
2023/03/10 08:20:54;;;;;;;0.20;0.20;;;;;;;16.91;89.81;99291.28;5056218;28;20059;-66
2023/03/10 08:23:20;;;;;;;0.20;0.20;;;;;;;16.87;88.77;99288.53;5037937;28;20039;-66
2023/03/10 08:25:45;;;;;;;0.20;0.20;;;;;;;16.93;88.85;99298.06;5038485;28;20024;-66
2023/03/10 08:28:11;;;;;;;0.20;0.20;;;;;;;16.58;89.80;99276.97;5037934;28;20467;-66
2023/03/10 08:30:38;;;;;;;0.20;0.20;;;;;;;16.75;90.72;99295.56;5038410;28;20059;-66
2023/03/10 08:33:07;;;;;;;0.20;0.20;;;;;;;16.43;92.14;99290.41;5038101;28;20381;-66
2023/03/10 08:35:33;;;;;;;0.20;0.20;;;;;;;16.57;93.81;99291.44;5038038;28;20068;-67
2023/03/10 08:37:58;;;;;;;0.20;0.20;;;;;;;17.05;91.75;99295.88;5037914;28;20025;-67
2023/03/10 08:40:24;;;;;;;0.20;0.20;;;;;;;17.58;90.63;99291.25;5037595;28;20487;-67
2023/03/10 08:42:50;;;;;;;0.20;0.20;;;;;;;18.35;82.40;99298.50;5055926;28;20041;-67
2023/03/10 08:45:15;;;;;;;0.20;0.20;;;;;;;18.50;79.91;99294.16;5037590;28;20037;-67
2023/03/10 08:47:41;;;;;;;0.20;0.20;;;;;;;18.54;78.64;99283.59;5037129;28;20052;-66
2023/03/10 08:50:08;;;;;;;0.20;0.20;;;;;;;18.51;78.10;99287.28;5037816;28;20021;-66
2023/03/10 08:52:33;;;;;;;0.20;0.20;;;;;;;18.50;78.78;99286.47;5037325;28;20032;-67
2023/03/10 08:54:59;;;;;;;0.20;0.20;;;;;;;18.38;80.31;99294.84;5037412;28;20036;-67
2023/03/10 08:57:24;;;;;;;0.20;0.20;;;;;;;18.22;80.63;99293.56;5036973;28;20452;-67
2023/03/10 08:59:50;;;;;;;0.20;0.20;;;;;;;17.89;81.65;99289.84;5037343;28;20024;-67
2023/03/10 09:02:16;;;;;;;0.20;0.20;;;;;;;17.67;82.86;99292.28;5037223;28;20033;-67
2023/03/10 09:04:41;;;;;;;0.20;0.20;;;;;;;17.60;83.76;99284.00;5037721;28;20029;-66
2023/03/10 09:07:07;;;;;;;0.20;0.20;;;;;;;17.65;83.57;99294.75;5036563;28;20115;-67
2023/03/10 09:09:33;;;;;;;0.20;0.20;;;;;;;17.74;83.71;99286.56;5037013;28;20067;-66
2023/03/10 09:11:58;;;;;;;0.20;0.20;;;;;;;17.96;82.33;99286.09;5037343;28;20041;-66
2023/03/10 09:14:24;;;;;;;0.20;0.20;;;;;;;17.95;82.49;99285.31;5036718;28;20029;-67
2023/03/10 09:16:50;;;;;;;0.20;0.20;;;;;;;17.67;84.41;99272.59;5055048;28;20491;-66
2023/03/10 09:19:15;;;;;;;0.20;0.20;;;;;;;18.74;80.06;99275.84;5036886;28;20112;-67
2023/03/10 09:21:41;;;;;;;0.20;0.20;;;;;;;18.38;79.98;99283.56;5037187;28;20029;-66
2023/03/10 09:24:07;;;;;;;0.20;0.20;;;;;;;18.26;80.25;99283.00;5037313;28;20460;-67
2023/03/10 09:26:33;;;;;;;0.20;0.20;;;;;;;18.64;78.06;99290.97;5037185;28;20397;-66
2023/03/10 09:28:59;;;;;;;0.20;0.20;;;;;;;18.62;78.22;99282.19;5037803;28;20029;-67
2023/03/10 09:31:29;;;;;;;0.20;0.20;;;;;;;19.45;75.38;99283.72;5040500;28;20031;-66
2023/03/10 09:33:54;;;;;;;0.20;0.20;;;;;;;20.30;72.31;99284.06;5037490;28;20025;-66
2023/03/10 09:36:20;;;;;;;0.20;0.20;;;;;;;20.06;69.77;99283.56;5036816;28;20033;-68
2023/03/10 09:38:46;;;;;;;0.20;0.20;;;;;;;20.56;66.76;99289.72;5037050;28;20029;-67
2023/03/10 09:41:14;;;;;;;0.20;0.20;;;;;;;21.19;64.70;99286.78;5036293;28;20029;-68
2023/03/10 09:43:49;;;;;;;0.20;0.20;;;;;;;20.21;65.96;99286.75;5036468;28;20078;-67
2023/03/10 09:46:23;;;;;;;0.20;0.20;;;;;;;20.13;67.02;99274.06;5037706;28;20060;-68
2023/03/10 09:49:18;;;;;;;0.20;0.20;;;;;;;20.38;64.76;99278.97;5036586;28;20024;-67
2023/03/10 09:51:48;;;;;;;0.20;0.20;;;;;;;20.59;64.08;99272.66;5036493;28;20475;-68
2023/03/10 09:54:16;;;;;;;0.20;0.20;;;;;;;21.37;63.48;99268.47;5036269;28;20037;-68
2023/03/10 09:56:42;;;;;;;0.20;0.20;;;;;;;21.20;61.47;99262.16;5036147;28;20029;-68
2023/03/10 09:59:40;;;;;;;0.20;0.20;;;;;;;20.74;63.61;99267.34;5035632;28;20454;-67
2023/03/10 10:02:19;;;;;;;0.20;0.20;;;;;;;19.89;66.21;99270.78;5036316;28;20159;-68
2023/03/10 10:04:48;;;;;;;0.20;0.20;;;;;;;19.65;67.59;99270.25;5036704;28;20037;-68
2023/03/10 10:07:23;;;;;;;0.20;0.20;;;;;;;19.80;67.30;99262.16;5035884;28;20031;-68
2023/03/10 10:10:08;;;;;;;0.20;0.20;;;;;;;19.70;68.23;99269.69;5035991;28;20101;-68
2023/03/10 10:12:34;;;;;;;0.20;0.20;;;;;;;19.70;69.51;99266.09;5053761;28;20033;-67
2023/03/10 10:15:15;;;;;;;0.20;0.20;;;;;;;18.80;74.13;99260.03;5036437;28;20064;-68
2023/03/10 10:17:50;;;;;;;0.20;0.20;;;;;;;18.58;74.23;99253.28;5053786;28;20044;-68
2023/03/10 10:20:20;;;;;;;0.20;0.20;;;;;;;18.88;74.34;99263.44;5036134;28;20029;-69
2023/03/10 10:22:46;;;;;;;0.20;0.20;;;;;;;18.67;73.17;99272.41;5035667;28;20100;-68
2023/03/10 10:25:19;;;;;;;0.20;0.20;;;;;;;18.59;74.63;99268.97;5036670;28;20029;-67
2023/03/10 10:27:46;;;;;;;0.20;0.20;;;;;;;18.87;74.34;99283.63;5036279;28;20021;-67
2023/03/10 10:30:32;;;;;;;0.20;0.20;;;;;;;19.05;73.18;99269.84;5035697;28;20044;-67
2023/03/10 10:33:00;;;;;;;0.20;0.20;;;;;;;19.15;73.70;99274.44;5035957;28;20482;-67
2023/03/10 10:35:31;;;;;;;0.20;0.20;;;;;;;19.26;71.95;99263.66;5035736;28;20043;-67
2023/03/10 10:38:03;;;;;;;0.20;0.20;;;;;;;19.19;73.20;99260.25;5035675;28;20025;-67
2023/03/10 10:40:33;;;;;;;0.20;0.20;;;;;;;18.79;74.72;99261.25;5035613;28;20036;-67
2023/03/10 10:42:59;;;;;;;0.20;0.20;;;;;;;18.55;76.56;99263.44;5053532;28;20021;-67
2023/03/10 10:45:38;;;;;;;0.20;0.20;;;;;;;18.27;79.00;99255.66;5035879;28;20029;-67
2023/03/10 10:48:04;;;;;;;0.20;0.20;;;;;;;18.83;76.92;99249.88;5035551;28;20029;-67
2023/03/10 10:50:32;;;;;;;0.20;0.20;;;;;;;18.81;77.11;99252.38;5035828;28;20033;-67
2023/03/10 10:53:25;;;;;;;0.20;0.20;;;;;;;18.72;77.38;99235.28;5036036;28;20031;-68
2023/03/10 10:56:11;;;;;;;0.20;0.20;;;;;;;18.54;77.82;99247.75;5035491;28;20441;-67
2023/03/10 10:58:39;;;;;;;0.20;0.20;;;;;;;18.46;79.07;99237.88;5053299;28;20052;-67
2023/03/10 11:01:07;;;;;;;0.20;0.20;;;;;;;18.35;79.43;99239.38;5036226;28;20026;-67
2023/03/10 11:03:35;;;;;;;0.20;0.20;;;;;;;18.27;79.62;99244.41;5035654;28;20471;-67
2023/03/10 11:06:19;;;;;;;0.20;0.20;;;;;;;17.76;82.45;99239.06;5035695;28;20025;-67
2023/03/10 11:08:49;;;;;;;0.20;0.20;;;;;;;17.62;83.79;99238.53;5035661;28;20028;-67
2023/03/10 11:11:18;;;;;;;0.20;0.20;;;;;;;17.74;84.15;99243.56;5035397;28;20029;-67
2023/03/10 11:14:11;;;;;;;0.20;0.20;;;;;;;17.30;86.01;99234.34;5036145;28;20036;-67
2023/03/10 11:17:11;;;;;;;0.20;0.20;;;;;;;16.60;92.01;99232.38;5035675;28;20068;-67
2023/03/10 11:20:09;;;;;;;0.20;0.20;;;;;;;16.67;92.17;99221.03;5035260;28;20032;-67
2023/03/10 11:23:01;;;;;;;0.20;0.20;;;;;;;17.36;89.73;99215.75;5027670;28;20040;-67
2023/03/10 11:25:30;;;;;;;0.20;0.20;;;;;;;17.35;87.23;99207.75;5035520;28;20029;-67
2023/03/10 11:27:59;;;;;;;0.20;0.20;;;;;;;17.71;85.92;99202.19;5035277;28;20119;-67
2023/03/10 11:30:36;;;;;;;0.20;0.20;;;;;;;18.03;83.66;99193.06;5036457;28;20047;-66
2023/03/10 11:33:27;;;;;;;0.28;0.28;;;;;;;18.25;83.62;99194.13;5038979;28;20068;-67
2023/03/10 11:35:57;;;;;;;0.20;0.20;;;;;;;18.02;83.01;99178.19;5038811;28;20036;-66